sensor_id;sensor_type;location;lat;lon;timestamp;temperature;humidity
31263;DHT22;17892;52.080;9.006;2023-06-19T00:01:49;25.20;51.30
31263;DHT22;17892;52.080;9.006;2023-06-19T00:04:15;25.20;51.30
31263;DHT22;17892;52.080;9.006;2023-06-19T00:06:40;25.10;51.40
31263;DHT22;17892;52.080;9.006;2023-06-19T00:09:07;25.10;51.30
31263;DHT22;17892;52.080;9.006;2023-06-19T00:11:32;25.10;51.40
31263;DHT22;17892;52.080;9.006;2023-06-19T00:13:58;25.00;51.30
31263;DHT22;17892;52.080;9.006;2023-06-19T00:16:24;24.90;51.40
31263;DHT22;17892;52.080;9.006;2023-06-19T00:18:51;24.90;51.40
31263;DHT22;17892;52.080;9.006;2023-06-19T00:21:22;24.80;51.50
31263;DHT22;17892;52.080;9.006;2023-06-19T00:23:51;24.70;51.40
31263;DHT22;17892;52.080;9.006;2023-06-19T00:26:18;24.70;51.60
31263;DHT22;17892;52.080;9.006;2023-06-19T00:28:48;24.60;51.80
31263;DHT22;17892;52.080;9.006;2023-06-19T00:31:15;24.60;51.70
31263;DHT22;17892;52.080;9.006;2023-06-19T00:33:43;24.50;51.90
31263;DHT22;17892;52.080;9.006;2023-06-19T00:36:13;24.40;52.00
31263;DHT22;17892;52.080;9.006;2023-06-19T00:38:41;24.30;52.30
31263;DHT22;17892;52.080;9.006;2023-06-19T00:41:07;24.20;52.00
31263;DHT22;17892;52.080;9.006;2023-06-19T00:43:34;24.20;52.10
31263;DHT22;17892;52.080;9.006;2023-06-19T00:46:01;24.10;52.40
31263;DHT22;17892;52.080;9.006;2023-06-19T00:48:28;24.00;52.50
31263;DHT22;17892;52.080;9.006;2023-06-19T00:50:57;23.90;52.40
31263;DHT22;17892;52.080;9.006;2023-06-19T00:53:23;23.80;52.60
31263;DHT22;17892;52.080;9.006;2023-06-19T00:55:54;23.80;53.70
31263;DHT22;17892;52.080;9.006;2023-06-19T00:58:22;23.60;53.40
31263;DHT22;17892;52.080;9.006;2023-06-19T01:00:48;23.50;52.90
31263;DHT22;17892;52.080;9.006;2023-06-19T01:03:14;23.40;53.10
31263;DHT22;17892;52.080;9.006;2023-06-19T01:05:41;23.30;53.10
31263;DHT22;17892;52.080;9.006;2023-06-19T01:08:13;23.20;53.30
31263;DHT22;17892;52.080;9.006;2023-06-19T01:10:46;23.10;53.40
31263;DHT22;17892;52.080;9.006;2023-06-19T01:13:34;23.10;53.80
31263;DHT22;17892;52.080;9.006;2023-06-19T01:16:06;23.00;54.80
31263;DHT22;17892;52.080;9.006;2023-06-19T01:18:32;22.90;54.20
31263;DHT22;17892;52.080;9.006;2023-06-19T01:21:15;22.90;54.20
31263;DHT22;17892;52.080;9.006;2023-06-19T01:23:42;22.80;55.20
31263;DHT22;17892;52.080;9.006;2023-06-19T01:26:08;22.80;54.40
31263;DHT22;17892;52.080;9.006;2023-06-19T01:28:36;22.80;54.40
31263;DHT22;17892;52.080;9.006;2023-06-19T01:31:06;22.80;54.70
31263;DHT22;17892;52.080;9.006;2023-06-19T01:33:38;22.80;55.20
31263;DHT22;17892;52.080;9.006;2023-06-19T01:36:06;22.70;54.90
31263;DHT22;17892;52.080;9.006;2023-06-19T01:38:33;22.80;55.20
31263;DHT22;17892;52.080;9.006;2023-06-19T01:41:01;22.80;55.40
31263;DHT22;17892;52.080;9.006;2023-06-19T01:43:30;22.80;55.40
31263;DHT22;17892;52.080;9.006;2023-06-19T01:45:57;22.80;55.80
31263;DHT22;17892;52.080;9.006;2023-06-19T01:48:24;22.80;55.60
31263;DHT22;17892;52.080;9.006;2023-06-19T01:50:50;22.80;55.50
31263;DHT22;17892;52.080;9.006;2023-06-19T01:53:16;22.90;55.70
31263;DHT22;17892;52.080;9.006;2023-06-19T01:55:42;22.90;55.70
31263;DHT22;17892;52.080;9.006;2023-06-19T01:58:08;22.90;55.70
31263;DHT22;17892;52.080;9.006;2023-06-19T02:00:34;23.00;55.90
31263;DHT22;17892;52.080;9.006;2023-06-19T02:03:01;23.00;55.80
31263;DHT22;17892;52.080;9.006;2023-06-19T02:05:27;23.10;56.00
31263;DHT22;17892;52.080;9.006;2023-06-19T02:07:53;23.10;55.80
31263;DHT22;17892;52.080;9.006;2023-06-19T02:10:18;23.20;55.70
31263;DHT22;17892;52.080;9.006;2023-06-19T02:12:44;23.20;55.70
31263;DHT22;17892;52.080;9.006;2023-06-19T02:15:10;23.20;55.60
31263;DHT22;17892;52.080;9.006;2023-06-19T02:17:36;23.30;55.60
31263;DHT22;17892;52.080;9.006;2023-06-19T02:20:01;23.30;55.70
31263;DHT22;17892;52.080;9.006;2023-06-19T02:22:27;23.30;55.70
31263;DHT22;17892;52.080;9.006;2023-06-19T02:24:53;23.30;55.50
31263;DHT22;17892;52.080;9.006;2023-06-19T02:27:18;23.30;55.60
31263;DHT22;17892;52.080;9.006;2023-06-19T02:29:44;23.30;55.50
31263;DHT22;17892;52.080;9.006;2023-06-19T02:32:10;23.30;55.60
31263;DHT22;17892;52.080;9.006;2023-06-19T02:34:36;23.30;55.50
31263;DHT22;17892;52.080;9.006;2023-06-19T02:37:02;23.30;55.60
31263;DHT22;17892;52.080;9.006;2023-06-19T02:39:29;23.30;55.60
31263;DHT22;17892;52.080;9.006;2023-06-19T02:41:54;23.30;55.60
31263;DHT22;17892;52.080;9.006;2023-06-19T02:44:20;23.30;55.70
31263;DHT22;17892;52.080;9.006;2023-06-19T02:46:46;23.30;55.70
31263;DHT22;17892;52.080;9.006;2023-06-19T02:49:11;23.30;55.70
31263;DHT22;17892;52.080;9.006;2023-06-19T02:51:37;23.30;55.70
31263;DHT22;17892;52.080;9.006;2023-06-19T02:54:03;23.30;55.60
31263;DHT22;17892;52.080;9.006;2023-06-19T02:56:28;23.30;55.70
31263;DHT22;17892;52.080;9.006;2023-06-19T02:58:54;23.30;55.60
31263;DHT22;17892;52.080;9.006;2023-06-19T03:01:20;23.30;55.50
31263;DHT22;17892;52.080;9.006;2023-06-19T03:03:46;23.40;55.70
31263;DHT22;17892;52.080;9.006;2023-06-19T03:06:13;23.40;55.60
31263;DHT22;17892;52.080;9.006;2023-06-19T03:08:39;23.40;55.60
31263;DHT22;17892;52.080;9.006;2023-06-19T03:11:05;23.40;55.60
31263;DHT22;17892;52.080;9.006;2023-06-19T03:13:43;23.50;55.90
31263;DHT22;17892;52.080;9.006;2023-06-19T03:16:18;23.50;55.80
31263;DHT22;17892;52.080;9.006;2023-06-19T03:18:45;23.50;55.80
31263;DHT22;17892;52.080;9.006;2023-06-19T03:21:12;23.50;56.00
31263;DHT22;17892;52.080;9.006;2023-06-19T03:23:38;23.50;56.10
31263;DHT22;17892;52.080;9.006;2023-06-19T03:26:06;23.50;55.90
31263;DHT22;17892;52.080;9.006;2023-06-19T03:28:33;23.40;55.70
31263;DHT22;17892;52.080;9.006;2023-06-19T03:30:58;23.40;55.70
31263;DHT22;17892;52.080;9.006;2023-06-19T03:33:26;23.40;55.90
31263;DHT22;17892;52.080;9.006;2023-06-19T03:35:51;23.40;56.10
31263;DHT22;17892;52.080;9.006;2023-06-19T03:38:17;23.40;56.80
31263;DHT22;17892;52.080;9.006;2023-06-19T03:40:43;23.30;56.70
31263;DHT22;17892;52.080;9.006;2023-06-19T03:43:08;23.30;56.60
31263;DHT22;17892;52.080;9.006;2023-06-19T03:45:34;23.30;56.60
31263;DHT22;17892;52.080;9.006;2023-06-19T03:48:00;23.20;56.50
31263;DHT22;17892;52.080;9.006;2023-06-19T03:50:25;23.20;56.90
31263;DHT22;17892;52.080;9.006;2023-06-19T03:52:51;23.20;57.00
31263;DHT22;17892;52.080;9.006;2023-06-19T03:55:17;23.10;57.20
31263;DHT22;17892;52.080;9.006;2023-06-19T03:57:43;23.10;57.50
31263;DHT22;17892;52.080;9.006;2023-06-19T04:00:09;23.10;58.40
31263;DHT22;17892;52.080;9.006;2023-06-19T04:02:38;23.00;57.70
31263;DHT22;17892;52.080;9.006;2023-06-19T04:05:05;23.00;57.80
31263;DHT22;17892;52.080;9.006;2023-06-19T04:07:32;23.00;57.80
31263;DHT22;17892;52.080;9.006;2023-06-19T04:09:58;23.00;57.80
31263;DHT22;17892;52.080;9.006;2023-06-19T04:12:24;22.90;58.00
31263;DHT22;17892;52.080;9.006;2023-06-19T04:14:50;23.00;58.10
31263;DHT22;17892;52.080;9.006;2023-06-19T04:17:15;22.90;58.00
31263;DHT22;17892;52.080;9.006;2023-06-19T04:19:42;22.90;58.00
31263;DHT22;17892;52.080;9.006;2023-06-19T04:22:08;22.90;58.30
31263;DHT22;17892;52.080;9.006;2023-06-19T04:24:34;22.90;58.20
31263;DHT22;17892;52.080;9.006;2023-06-19T04:27:00;22.90;58.20
31263;DHT22;17892;52.080;9.006;2023-06-19T04:29:26;22.90;58.10
31263;DHT22;17892;52.080;9.006;2023-06-19T04:31:52;22.90;58.40
31263;DHT22;17892;52.080;9.006;2023-06-19T04:34:18;22.90;58.20
31263;DHT22;17892;52.080;9.006;2023-06-19T04:36:50;23.00;58.70
31263;DHT22;17892;52.080;9.006;2023-06-19T04:39:15;23.00;58.70
31263;DHT22;17892;52.080;9.006;2023-06-19T04:41:43;23.00;58.80
31263;DHT22;17892;52.080;9.006;2023-06-19T04:44:12;23.00;58.80
31263;DHT22;17892;52.080;9.006;2023-06-19T04:46:38;23.10;60.00
31263;DHT22;17892;52.080;9.006;2023-06-19T04:49:05;23.10;59.00
31263;DHT22;17892;52.080;9.006;2023-06-19T04:51:31;23.20;59.30
31263;DHT22;17892;52.080;9.006;2023-06-19T04:53:59;23.30;59.20
31263;DHT22;17892;52.080;9.006;2023-06-19T04:56:25;23.40;59.40
31263;DHT22;17892;52.080;9.006;2023-06-19T04:58:50;23.50;59.20
31263;DHT22;17892;52.080;9.006;2023-06-19T05:01:17;23.60;59.10
31263;DHT22;17892;52.080;9.006;2023-06-19T05:03:45;23.60;59.00
31263;DHT22;17892;52.080;9.006;2023-06-19T05:06:14;23.70;59.10
31263;DHT22;17892;52.080;9.006;2023-06-19T05:08:39;23.80;59.10
31263;DHT22;17892;52.080;9.006;2023-06-19T05:11:05;23.80;58.90
31263;DHT22;17892;52.080;9.006;2023-06-19T05:13:31;23.80;58.80
31263;DHT22;17892;52.080;9.006;2023-06-19T05:15:57;23.80;59.10
31263;DHT22;17892;52.080;9.006;2023-06-19T05:18:22;23.80;59.00
31263;DHT22;17892;52.080;9.006;2023-06-19T05:20:48;23.80;59.20
31263;DHT22;17892;52.080;9.006;2023-06-19T05:23:14;23.80;59.20
31263;DHT22;17892;52.080;9.006;2023-06-19T05:25:39;23.80;59.30
31263;DHT22;17892;52.080;9.006;2023-06-19T05:28:05;23.70;59.40
31263;DHT22;17892;52.080;9.006;2023-06-19T05:30:31;23.70;59.40
31263;DHT22;17892;52.080;9.006;2023-06-19T05:32:57;23.80;59.80
31263;DHT22;17892;52.080;9.006;2023-06-19T05:35:22;23.80;59.90
31263;DHT22;17892;52.080;9.006;2023-06-19T05:37:48;23.80;59.80
31263;DHT22;17892;52.080;9.006;2023-06-19T05:40:14;23.80;60.00
31263;DHT22;17892;52.080;9.006;2023-06-19T05:42:40;23.80;60.20
31263;DHT22;17892;52.080;9.006;2023-06-19T05:45:07;23.80;60.20
31263;DHT22;17892;52.080;9.006;2023-06-19T05:47:33;23.90;60.20
31263;DHT22;17892;52.080;9.006;2023-06-19T05:49:59;23.90;59.90
31263;DHT22;17892;52.080;9.006;2023-06-19T05:52:25;23.90;60.30
31263;DHT22;17892;52.080;9.006;2023-06-19T05:54:51;23.90;60.00
31263;DHT22;17892;52.080;9.006;2023-06-19T05:57:19;23.90;60.10
31263;DHT22;17892;52.080;9.006;2023-06-19T05:59:48;24.00;60.80
31263;DHT22;17892;52.080;9.006;2023-06-19T06:02:13;24.10;61.40
31263;DHT22;17892;52.080;9.006;2023-06-19T06:04:39;24.30;62.10
31263;DHT22;17892;52.080;9.006;2023-06-19T06:07:05;24.60;62.50
31263;DHT22;17892;52.080;9.006;2023-06-19T06:09:31;25.00;62.90
31263;DHT22;17892;52.080;9.006;2023-06-19T06:11:58;25.40;62.80
31263;DHT22;17892;52.080;9.006;2023-06-19T06:14:25;25.80;62.30
31263;DHT22;17892;52.080;9.006;2023-06-19T06:16:51;26.20;61.30
31263;DHT22;17892;52.080;9.006;2023-06-19T06:19:16;26.60;60.80
31263;DHT22;17892;52.080;9.006;2023-06-19T06:21:42;26.90;60.30
31263;DHT22;17892;52.080;9.006;2023-06-19T06:24:07;27.10;59.20
31263;DHT22;17892;52.080;9.006;2023-06-19T06:26:33;27.30;59.20
31263;DHT22;17892;52.080;9.006;2023-06-19T06:29:00;27.40;59.20
31263;DHT22;17892;52.080;9.006;2023-06-19T06:31:26;27.60;59.00
31263;DHT22;17892;52.080;9.006;2023-06-19T06:33:52;27.80;59.00
31263;DHT22;17892;52.080;9.006;2023-06-19T06:36:18;27.90;58.90
31263;DHT22;17892;52.080;9.006;2023-06-19T06:38:44;28.00;58.60
31263;DHT22;17892;52.080;9.006;2023-06-19T06:41:10;28.10;58.40
31263;DHT22;17892;52.080;9.006;2023-06-19T06:43:35;28.30;58.60
31263;DHT22;17892;52.080;9.006;2023-06-19T06:46:02;28.40;58.40
31263;DHT22;17892;52.080;9.006;2023-06-19T06:48:28;28.50;58.10
31263;DHT22;17892;52.080;9.006;2023-06-19T06:50:55;28.60;58.00
31263;DHT22;17892;52.080;9.006;2023-06-19T06:53:27;28.70;58.00
31263;DHT22;17892;52.080;9.006;2023-06-19T06:55:59;28.70;57.90
31263;DHT22;17892;52.080;9.006;2023-06-19T06:58:25;28.80;57.80
31263;DHT22;17892;52.080;9.006;2023-06-19T07:00:52;29.00;57.90
31263;DHT22;17892;52.080;9.006;2023-06-19T07:03:18;29.00;58.30
31263;DHT22;17892;52.080;9.006;2023-06-19T07:05:44;29.10;57.50
31263;DHT22;17892;52.080;9.006;2023-06-19T07:08:10;29.20;57.20
31263;DHT22;17892;52.080;9.006;2023-06-19T07:10:36;29.30;57.20
31263;DHT22;17892;52.080;9.006;2023-06-19T07:13:02;29.30;57.30
31263;DHT22;17892;52.080;9.006;2023-06-19T07:15:27;29.40;57.40
31263;DHT22;17892;52.080;9.006;2023-06-19T07:17:53;29.50;57.10
31263;DHT22;17892;52.080;9.006;2023-06-19T07:20:19;29.60;57.10
31263;DHT22;17892;52.080;9.006;2023-06-19T07:22:45;29.70;57.00
31263;DHT22;17892;52.080;9.006;2023-06-19T07:25:12;29.80;56.90
31263;DHT22;17892;52.080;9.006;2023-06-19T07:27:40;29.80;57.20
31263;DHT22;17892;52.080;9.006;2023-06-19T07:30:06;29.90;56.90
31263;DHT22;17892;52.080;9.006;2023-06-19T07:32:32;30.00;56.70
31263;DHT22;17892;52.080;9.006;2023-06-19T07:34:58;30.10;56.30
31263;DHT22;17892;52.080;9.006;2023-06-19T07:37:24;30.10;56.00
31263;DHT22;17892;52.080;9.006;2023-06-19T07:39:50;30.00;55.90
31263;DHT22;17892;52.080;9.006;2023-06-19T07:42:17;30.00;55.90
31263;DHT22;17892;52.080;9.006;2023-06-19T07:44:44;29.90;56.10
31263;DHT22;17892;52.080;9.006;2023-06-19T07:47:11;29.90;56.30
31263;DHT22;17892;52.080;9.006;2023-06-19T07:49:37;29.90;56.80
31263;DHT22;17892;52.080;9.006;2023-06-19T07:52:03;29.90;57.20
31263;DHT22;17892;52.080;9.006;2023-06-19T07:54:29;30.00;56.70
31263;DHT22;17892;52.080;9.006;2023-06-19T07:56:55;30.10;56.50
31263;DHT22;17892;52.080;9.006;2023-06-19T07:59:21;30.10;56.50
31263;DHT22;17892;52.080;9.006;2023-06-19T08:01:48;30.10;57.10
31263;DHT22;17892;52.080;9.006;2023-06-19T08:04:13;30.10;57.80
31263;DHT22;17892;52.080;9.006;2023-06-19T08:06:39;30.40;58.30
31263;DHT22;17892;52.080;9.006;2023-06-19T08:09:05;30.60;57.80
31263;DHT22;17892;52.080;9.006;2023-06-19T08:11:30;30.80;56.90
31263;DHT22;17892;52.080;9.006;2023-06-19T08:13:56;30.90;56.10
31263;DHT22;17892;52.080;9.006;2023-06-19T08:16:24;30.90;55.60
31263;DHT22;17892;52.080;9.006;2023-06-19T08:18:50;30.90;54.70
31263;DHT22;17892;52.080;9.006;2023-06-19T08:21:16;30.70;54.50
31263;DHT22;17892;52.080;9.006;2023-06-19T08:23:41;30.40;54.70
31263;DHT22;17892;52.080;9.006;2023-06-19T08:26:12;30.20;55.00
31263;DHT22;17892;52.080;9.006;2023-06-19T08:28:37;29.90;55.40
31263;DHT22;17892;52.080;9.006;2023-06-19T08:31:03;29.60;55.50
31263;DHT22;17892;52.080;9.006;2023-06-19T08:33:29;29.30;55.80
31263;DHT22;17892;52.080;9.006;2023-06-19T08:35:55;29.10;56.70
31263;DHT22;17892;52.080;9.006;2023-06-19T08:38:20;28.90;56.70
31263;DHT22;17892;52.080;9.006;2023-06-19T08:40:46;28.70;57.10
31263;DHT22;17892;52.080;9.006;2023-06-19T08:43:12;28.50;57.60
31263;DHT22;17892;52.080;9.006;2023-06-19T08:45:38;28.40;57.70
31263;DHT22;17892;52.080;9.006;2023-06-19T08:48:04;28.20;57.90
31263;DHT22;17892;52.080;9.006;2023-06-19T08:50:33;28.10;58.30
31263;DHT22;17892;52.080;9.006;2023-06-19T08:52:58;28.00;58.70
31263;DHT22;17892;52.080;9.006;2023-06-19T08:55:24;27.80;58.80
31263;DHT22;17892;52.080;9.006;2023-06-19T08:57:51;27.70;59.20
31263;DHT22;17892;52.080;9.006;2023-06-19T09:00:25;27.70;59.30
31263;DHT22;17892;52.080;9.006;2023-06-19T09:02:57;27.60;59.80
31263;DHT22;17892;52.080;9.006;2023-06-19T09:05:25;27.60;59.60
31263;DHT22;17892;52.080;9.006;2023-06-19T09:07:58;27.60;59.70
31263;DHT22;17892;52.080;9.006;2023-06-19T09:10:28;27.50;60.00
31263;DHT22;17892;52.080;9.006;2023-06-19T09:13:01;27.50;60.00
31263;DHT22;17892;52.080;9.006;2023-06-19T09:15:32;27.40;60.70
31263;DHT22;17892;52.080;9.006;2023-06-19T09:18:07;27.40;61.10
31263;DHT22;17892;52.080;9.006;2023-06-19T09:20:37;27.40;61.60
31263;DHT22;17892;52.080;9.006;2023-06-19T09:23:11;27.50;61.60
31263;DHT22;17892;52.080;9.006;2023-06-19T09:25:57;27.60;62.30
31263;DHT22;17892;52.080;9.006;2023-06-19T09:28:27;27.80;62.80
31263;DHT22;17892;52.080;9.006;2023-06-19T09:33:31;28.20;61.30
31263;DHT22;17892;52.080;9.006;2023-06-19T09:35:59;28.30;60.70
31263;DHT22;17892;52.080;9.006;2023-06-19T09:38:30;28.20;59.90
31263;DHT22;17892;52.080;9.006;2023-06-19T09:41:02;28.20;59.80
31263;DHT22;17892;52.080;9.006;2023-06-19T09:43:40;28.00;59.90
31263;DHT22;17892;52.080;9.006;2023-06-19T09:46:10;28.00;61.00
31263;DHT22;17892;52.080;9.006;2023-06-19T09:48:44;28.00;61.40
31263;DHT22;17892;52.080;9.006;2023-06-19T09:51:19;28.10;61.90
31263;DHT22;17892;52.080;9.006;2023-06-19T09:53:49;28.20;62.40
31263;DHT22;17892;52.080;9.006;2023-06-19T09:56:17;28.60;63.30
31263;DHT22;17892;52.080;9.006;2023-06-19T09:58:47;28.90;63.30
31263;DHT22;17892;52.080;9.006;2023-06-19T10:01:15;29.40;64.30
31263;DHT22;17892;52.080;9.006;2023-06-19T10:03:44;30.00;64.20
31263;DHT22;17892;52.080;9.006;2023-06-19T10:06:14;30.50;62.20
31263;DHT22;17892;52.080;9.006;2023-06-19T10:08:42;30.90;58.30
31263;DHT22;17892;52.080;9.006;2023-06-19T10:11:09;31.00;57.20
31263;DHT22;17892;52.080;9.006;2023-06-19T10:13:41;30.90;56.30
31263;DHT22;17892;52.080;9.006;2023-06-19T10:16:08;30.70;55.20
31263;DHT22;17892;52.080;9.006;2023-06-19T10:18:46;30.40;55.30
31263;DHT22;17892;52.080;9.006;2023-06-19T10:21:19;30.10;55.70
31263;DHT22;17892;52.080;9.006;2023-06-19T10:23:56;29.80;56.20
31263;DHT22;17892;52.080;9.006;2023-06-19T10:26:33;29.60;56.60
31263;DHT22;17892;52.080;9.006;2023-06-19T10:29:00;29.40;56.60
31263;DHT22;17892;52.080;9.006;2023-06-19T10:31:26;29.30;57.10
31263;DHT22;17892;52.080;9.006;2023-06-19T10:33:54;29.30;57.40
31263;DHT22;17892;52.080;9.006;2023-06-19T10:36:21;29.30;58.10
31263;DHT22;17892;52.080;9.006;2023-06-19T10:38:48;29.30;57.60
31263;DHT22;17892;52.080;9.006;2023-06-19T10:41:19;29.30;57.70
31263;DHT22;17892;52.080;9.006;2023-06-19T10:43:56;29.40;57.70
31263;DHT22;17892;52.080;9.006;2023-06-19T10:46:33;29.40;57.60
31263;DHT22;17892;52.080;9.006;2023-06-19T10:49:04;29.50;57.90
31263;DHT22;17892;52.080;9.006;2023-06-19T10:51:33;29.50;57.80
31263;DHT22;17892;52.080;9.006;2023-06-19T10:53:59;29.60;56.90
31263;DHT22;17892;52.080;9.006;2023-06-19T10:56:25;29.50;56.70
31263;DHT22;17892;52.080;9.006;2023-06-19T11:01:32;29.70;58.10
31263;DHT22;17892;52.080;9.006;2023-06-19T11:03:59;29.90;58.30
31263;DHT22;17892;52.080;9.006;2023-06-19T11:06:25;30.10;56.80
31263;DHT22;17892;52.080;9.006;2023-06-19T11:08:51;30.10;56.40
31263;DHT22;17892;52.080;9.006;2023-06-19T11:11:18;30.20;56.20
31263;DHT22;17892;52.080;9.006;2023-06-19T11:13:45;30.10;56.00
31263;DHT22;17892;52.080;9.006;2023-06-19T11:16:11;30.00;55.90
31263;DHT22;17892;52.080;9.006;2023-06-19T11:18:36;29.90;56.20
31263;DHT22;17892;52.080;9.006;2023-06-19T11:21:02;29.90;56.70
31263;DHT22;17892;52.080;9.006;2023-06-19T11:23:30;30.00;56.90
31263;DHT22;17892;52.080;9.006;2023-06-19T11:26:03;30.00;56.90
31263;DHT22;17892;52.080;9.006;2023-06-19T11:28:29;30.10;56.50
31263;DHT22;17892;52.080;9.006;2023-06-19T11:31:00;30.20;56.80
31263;DHT22;17892;52.080;9.006;2023-06-19T11:33:28;30.50;56.90
31263;DHT22;17892;52.080;9.006;2023-06-19T11:35:59;30.70;57.00
31263;DHT22;17892;52.080;9.006;2023-06-19T11:38:27;31.00;56.10
31263;DHT22;17892;52.080;9.006;2023-06-19T11:40:54;31.20;56.20
31263;DHT22;17892;52.080;9.006;2023-06-19T11:46:00;31.40;53.60
31263;DHT22;17892;52.080;9.006;2023-06-19T11:48:27;31.30;53.70
31263;DHT22;17892;52.080;9.006;2023-06-19T11:50:54;31.20;53.90
31263;DHT22;17892;52.080;9.006;2023-06-19T11:53:24;31.20;54.00
31263;DHT22;17892;52.080;9.006;2023-06-19T11:55:50;31.20;54.20
31263;DHT22;17892;52.080;9.006;2023-06-19T11:58:17;31.20;54.10
31263;DHT22;17892;52.080;9.006;2023-06-19T12:00:45;31.20;54.00
31263;DHT22;17892;52.080;9.006;2023-06-19T12:03:10;31.20;53.80
31263;DHT22;17892;52.080;9.006;2023-06-19T12:05:37;31.20;53.30
31263;DHT22;17892;52.080;9.006;2023-06-19T12:08:03;31.10;53.00
31263;DHT22;17892;52.080;9.006;2023-06-19T12:10:30;30.90;53.00
31263;DHT22;17892;52.080;9.006;2023-06-19T12:12:56;30.80;53.50
31263;DHT22;17892;52.080;9.006;2023-06-19T12:15:22;30.60;54.20
31263;DHT22;17892;52.080;9.006;2023-06-19T12:17:51;30.50;54.30
31263;DHT22;17892;52.080;9.006;2023-06-19T12:20:17;30.50;54.50
31263;DHT22;17892;52.080;9.006;2023-06-19T12:22:43;30.50;54.50
31263;DHT22;17892;52.080;9.006;2023-06-19T12:25:09;30.50;54.60
31263;DHT22;17892;52.080;9.006;2023-06-19T12:27:37;30.50;54.50
31263;DHT22;17892;52.080;9.006;2023-06-19T12:30:03;30.50;54.80
31263;DHT22;17892;52.080;9.006;2023-06-19T12:32:29;30.50;54.80
31263;DHT22;17892;52.080;9.006;2023-06-19T12:34:55;30.50;54.80
31263;DHT22;17892;52.080;9.006;2023-06-19T12:37:21;30.60;54.40
31263;DHT22;17892;52.080;9.006;2023-06-19T12:39:48;30.50;54.50
31263;DHT22;17892;52.080;9.006;2023-06-19T12:42:15;30.50;54.90
31263;DHT22;17892;52.080;9.006;2023-06-19T12:44:40;30.60;55.30
31263;DHT22;17892;52.080;9.006;2023-06-19T12:47:07;30.60;55.20
31263;DHT22;17892;52.080;9.006;2023-06-19T12:49:33;30.70;54.80
31263;DHT22;17892;52.080;9.006;2023-06-19T12:51:59;30.70;54.70
31263;DHT22;17892;52.080;9.006;2023-06-19T12:54:25;30.60;54.70
31263;DHT22;17892;52.080;9.006;2023-06-19T12:56:52;30.60;55.30
31263;DHT22;17892;52.080;9.006;2023-06-19T12:59:18;30.60;55.30
31263;DHT22;17892;52.080;9.006;2023-06-19T13:01:44;30.60;55.40
31263;DHT22;17892;52.080;9.006;2023-06-19T13:04:10;30.70;55.40
31263;DHT22;17892;52.080;9.006;2023-06-19T13:06:37;30.70;54.90
31263;DHT22;17892;52.080;9.006;2023-06-19T13:09:03;30.60;54.80
31263;DHT22;17892;52.080;9.006;2023-06-19T13:11:30;30.60;55.10
31263;DHT22;17892;52.080;9.006;2023-06-19T13:13:56;30.60;55.60
31263;DHT22;17892;52.080;9.006;2023-06-19T13:16:22;30.70;56.30
31263;DHT22;17892;52.080;9.006;2023-06-19T13:18:51;30.90;56.70
31263;DHT22;17892;52.080;9.006;2023-06-19T13:21:17;31.10;56.70
31263;DHT22;17892;52.080;9.006;2023-06-19T13:23:42;31.40;57.30
31263;DHT22;17892;52.080;9.006;2023-06-19T13:26:08;31.80;57.60
31263;DHT22;17892;52.080;9.006;2023-06-19T13:28:35;32.20;57.30
31263;DHT22;17892;52.080;9.006;2023-06-19T13:31:02;32.60;56.00
31263;DHT22;17892;52.080;9.006;2023-06-19T13:33:28;33.00;55.00
31263;DHT22;17892;52.080;9.006;2023-06-19T13:35:54;33.30;54.60
31263;DHT22;17892;52.080;9.006;2023-06-19T13:38:19;33.50;54.00
31263;DHT22;17892;52.080;9.006;2023-06-19T13:40:46;33.80;53.90
31263;DHT22;17892;52.080;9.006;2023-06-19T13:43:12;34.10;53.00
31263;DHT22;17892;52.080;9.006;2023-06-19T13:45:38;34.20;51.40
31263;DHT22;17892;52.080;9.006;2023-06-19T13:48:06;34.30;49.80
31263;DHT22;17892;52.080;9.006;2023-06-19T13:50:32;34.20;49.30
31263;DHT22;17892;52.080;9.006;2023-06-19T13:52:59;34.10;49.30
31263;DHT22;17892;52.080;9.006;2023-06-19T13:55:25;33.90;49.80
31263;DHT22;17892;52.080;9.006;2023-06-19T13:57:50;33.80;49.80
31263;DHT22;17892;52.080;9.006;2023-06-19T14:00:17;33.80;50.10
31263;DHT22;17892;52.080;9.006;2023-06-19T14:02:43;33.80;50.00
31263;DHT22;17892;52.080;9.006;2023-06-19T14:05:09;33.80;50.10
31263;DHT22;17892;52.080;9.006;2023-06-19T14:07:35;33.80;49.80
31263;DHT22;17892;52.080;9.006;2023-06-19T14:10:03;33.80;48.80
31263;DHT22;17892;52.080;9.006;2023-06-19T14:12:30;33.80;48.90
31263;DHT22;17892;52.080;9.006;2023-06-19T14:14:56;33.70;49.20
31263;DHT22;17892;52.080;9.006;2023-06-19T14:17:22;33.70;49.30
31263;DHT22;17892;52.080;9.006;2023-06-19T14:19:49;33.60;49.00
31263;DHT22;17892;52.080;9.006;2023-06-19T14:22:16;33.70;49.10
31263;DHT22;17892;52.080;9.006;2023-06-19T14:24:42;33.70;48.40
31263;DHT22;17892;52.080;9.006;2023-06-19T14:27:08;33.60;48.00
31263;DHT22;17892;52.080;9.006;2023-06-19T14:29:33;33.50;48.00
31263;DHT22;17892;52.080;9.006;2023-06-19T14:31:59;33.30;47.90
31263;DHT22;17892;52.080;9.006;2023-06-19T14:34:25;33.10;48.20
31263;DHT22;17892;52.080;9.006;2023-06-19T14:36:50;33.10;49.10
31263;DHT22;17892;52.080;9.006;2023-06-19T14:39:17;33.10;49.10
31263;DHT22;17892;52.080;9.006;2023-06-19T14:41:42;33.10;48.80
31263;DHT22;17892;52.080;9.006;2023-06-19T14:44:08;33.10;49.10
31263;DHT22;17892;52.080;9.006;2023-06-19T14:46:34;33.20;49.30
31263;DHT22;17892;52.080;9.006;2023-06-19T14:49:11;33.30;49.60
31263;DHT22;17892;52.080;9.006;2023-06-19T14:51:38;33.40;48.50
31263;DHT22;17892;52.080;9.006;2023-06-19T14:54:04;33.50;48.80
31263;DHT22;17892;52.080;9.006;2023-06-19T14:56:30;33.50;47.70
31263;DHT22;17892;52.080;9.006;2023-06-19T14:58:56;33.40;47.40
31263;DHT22;17892;52.080;9.006;2023-06-19T15:01:21;33.30;47.10
31263;DHT22;17892;52.080;9.006;2023-06-19T15:03:47;33.10;47.50
31263;DHT22;17892;52.080;9.006;2023-06-19T15:06:13;33.00;47.60
31263;DHT22;17892;52.080;9.006;2023-06-19T15:08:39;32.90;48.10
31263;DHT22;17892;52.080;9.006;2023-06-19T15:11:05;32.90;48.40
31263;DHT22;17892;52.080;9.006;2023-06-19T15:13:31;32.90;48.80
31263;DHT22;17892;52.080;9.006;2023-06-19T15:15:57;33.00;49.10
31263;DHT22;17892;52.080;9.006;2023-06-19T15:18:26;33.10;49.00
31263;DHT22;17892;52.080;9.006;2023-06-19T15:20:52;33.20;48.30
31263;DHT22;17892;52.080;9.006;2023-06-19T15:23:18;33.20;48.00
31263;DHT22;17892;52.080;9.006;2023-06-19T15:25:44;33.20;47.70
31263;DHT22;17892;52.080;9.006;2023-06-19T15:28:10;33.10;47.60
31263;DHT22;17892;52.080;9.006;2023-06-19T15:30:36;33.00;47.70
31263;DHT22;17892;52.080;9.006;2023-06-19T15:33:01;32.90;47.60
31263;DHT22;17892;52.080;9.006;2023-06-19T15:35:27;32.70;47.70
31263;DHT22;17892;52.080;9.006;2023-06-19T15:37:53;32.60;48.10